Delfred Romero — WDH9117 — position and weather

sailwx.info

Track history (hours):
 
Tides and Currents Weather Stations Pressure Air Temp Water Temp Dewpoint Dewpoint Depression Visibility Wind Speed Wind Dir Waves Ship Positions

Delfred Romero

Owner: Enterprise Marine Services, LLC, San Antonio, TX. More information available from US FCC via Universal Licensing System and Coast Guard Vessel Documentation Center.

Last reported at 2018-May-21 08:17 UTC. Time now 2018-May-21 09:12 UTC.
Position N 29°27' W 094°42'.

Length 29 m; draft 2.9 m.

MMSI: 367614890.

Date/timePositionNaut miles runAvg speedWind from/ knotsBaromVisibWave heightAir tempDewpointWater temp
2018-May-21 08:17N 29°27' W 094°42'2 5.2
2018-May-21 07:59N 29°26' W 094°43'2 3.7
2018-May-21 07:30N 29°24' W 094°45'2 4.8
2018-May-21 07:00N 29°23' W 094°47'2 4.4
2018-May-21 06:30N 29°24' W 094°49'5 8.6
2018-May-21 05:57N 29°28' W 094°51'4 8.3
2018-May-21 05:30N 29°31' W 094°53'4 7.8
2018-May-21 05:00N 29°34' W 094°56'4 7.8
2018-May-21 04:30N 29°38' W 094°58'4 7.2
2018-May-21 03:58N 29°41' W 094°59'3 6.8
2018-May-21 03:29N 29°44' W 095°02'3 6.7
2018-May-21 03:00N 29°46' W 095°05'1 0.7
2018-May-21 02:13N 29°47' W 095°05'0 0.0
2018-May-21 00:37N 29°47' W 095°05'0 0.1
2018-May-21 00:25N 29°47' W 095°05'3 0.5
2018-May-20 18:19N 29°44' W 095°07'2 5.1
2018-May-20 17:56N 29°44' W 095°09'1 0.0
2018-May-19 21:28N 29°44' W 095°10'0 0.1
2018-May-19 20:55N 29°44' W 095°10'0 0.9
2018-May-19 20:29N 29°44' W 095°09'2 3.0
2018-May-19 19:51N 29°44' W 095°07'0 0.0
2018-May-19 19:29N 29°44' W 095°07'0 0.6
2018-May-19 19:00N 29°44' W 095°07'1 0.1
2018-May-18 21:15N 29°46' W 095°06'2 0.2
2018-May-18 09:42N 29°47' W 095°05'0 0.0
2018-May-18 08:15N 29°47' W 095°05'0 0.0
2018-May-18 07:54N 29°47' W 095°05'0 0.0
2018-May-18 06:27N 29°47' W 095°05'0 0.0
2018-May-17 11:54N 29°47' W 095°05'0 0.0
2018-May-17 05:41N 29°47' W 095°05'0 0.0
2018-May-17 04:15N 29°47' W 095°05'0 0.0
2018-May-17 04:00N 29°47' W 095°05'0 0.0
2018-May-17 03:30N 29°47' W 095°05'0 0.0
2018-May-17 03:00N 29°47' W 095°05'0 0.0
2018-May-17 02:30N 29°47' W 095°05'0 0.0
2018-May-17 02:00N 29°47' W 095°05'0 0.0
2018-May-17 01:28N 29°47' W 095°05'1 0.4
2018-May-16 23:14N 29°46' W 095°05'1 2.3
2018-May-16 22:53N 29°46' W 095°04'2 4.7
2018-May-16 22:25N 29°44' W 095°03'2 5.7
2018-May-16 22:00N 29°42' W 095°01'3 5.6
2018-May-16 21:29N 29°40' W 094°59'3 6.9
2018-May-16 21:00N 29°37' W 094°57'3 6.5
2018-May-16 20:30N 29°34' W 094°55'4 7.3
2018-May-16 20:00N 29°31' W 094°53'4 7.2
2018-May-16 19:29N 29°28' W 094°51'3 7.3
2018-May-16 19:00N 29°25' W 094°49'3 6.4
2018-May-16 18:30N 29°22' W 094°47'3 0.6
2018-May-16 13:23N 29°24' W 094°44'0 0.0
2018-May-16 12:59N 29°24' W 094°44'0 0.0
2018-May-16 12:11N 29°24' W 094°44'0 0.0
2018-May-16 11:47N 29°24' W 094°44'0 0.0
2018-May-16 11:20N 29°24' W 094°44'0 0.0
2018-May-16 10:41N 29°24' W 094°44'0 0.0
2018-May-16 10:14N 29°24' W 094°44'0 0.0
2018-May-16 08:38N 29°24' W 094°44'0 0.0
2018-May-16 08:26N 29°24' W 094°44'0 0.0
2018-May-16 07:50N 29°24' W 094°44'0 0.0
2018-May-16 07:02N 29°24' W 094°44'0 0.0
2018-May-16 06:59N 29°24' W 094°44'0 0.0
2018-May-16 06:29N 29°24' W 094°44'0 0.0
2018-May-16 05:59N 29°24' W 094°44'0 0.0
2018-May-16 05:20N 29°24' W 094°44'0 0.0
2018-May-16 04:59N 29°24' W 094°44'0 0.0
2018-May-16 04:26N 29°24' W 094°44'0 0.0
2018-May-16 03:02N 29°24' W 094°44'0 0.0
2018-May-16 02:53N 29°24' W 094°44'0 0.0
2018-May-16 01:26N 29°24' W 094°44'0 0.0
2018-May-16 00:53N 29°24' W 094°44'0 0.0
2018-May-15 13:17N 29°24' W 094°44'0 0.0
2018-May-15 04:02N 29°24' W 094°44'0 0.0
2018-May-15 01:41N 29°24' W 094°44'0 0.0
2018-May-14 15:38N 29°24' W 094°44'0 0.0
2018-May-13 21:24N 29°24' W 094°45'18 0.4
2018-May-12 04:35N 29°34' W 094°27'1 4.9
2018-May-12 04:27N 29°34' W 094°26'0 0.2
2018-May-12 03:38N 29°34' W 094°26'1 4.0
2018-May-12 03:29N 29°34' W 094°25'2 4.1
2018-May-12 03:00N 29°36' W 094°24'2 4.2
2018-May-12 02:30N 29°37' W 094°22'2 3.9
2018-May-12 01:59N 29°37' W 094°19'3 5.4
2018-May-12 01:31N 29°39' W 094°17'3 5.5
2018-May-12 01:00N 29°40' W 094°14'3 5.4
2018-May-12 00:30N 29°41' W 094°11'3 5.3
2018-May-12 00:00N 29°42' W 094°08'3 5.5
2018-May-11 23:30N 29°44' W 094°06'3 5.5
2018-May-11 23:01N 29°46' W 094°03'3 5.6
2018-May-11 22:31N 29°47' W 094°01'3 5.2
2018-May-11 22:01N 29°49' W 093°59'3 5.4
2018-May-11 21:31N 29°51' W 093°57'4 7.2
2018-May-11 21:00N 29°54' W 093°54'4 7.2
2018-May-11 20:30N 29°57' W 093°52'2 4.8
2018-May-11 20:01N 29°59' W 093°53'1 2.3
2018-May-11 19:31N 29°59' W 093°54'0 0.9
2018-May-11 19:01N 29°60' W 093°55'1 2.3
2018-May-11 18:31N 29°59' W 093°54'2 1.1
2018-May-11 16:31N 29°58' W 093°52'0 0.4
2018-May-11 16:30N 29°58' W 093°52'3 5.5
2018-May-11 15:59N 29°59' W 093°54'0 0.8
2018-May-11 15:30N 29°60' W 093°55'0 0.0
2018-May-11 15:00N 29°60' W 093°55'0 0.0
2018-May-11 14:30N 29°60' W 093°55'0 0.0
2018-May-11 14:00N 29°60' W 093°55'0 0.0
2018-May-11 13:30N 29°60' W 093°55'0 0.0
2018-May-11 13:00N 29°60' W 093°55'0 0.0
2018-May-11 12:21N 29°60' W 093°55'0 0.0
2018-May-11 12:00N 29°60' W 093°55'0 0.0
2018-May-11 11:30N 29°60' W 093°55'0 0.0
2018-May-11 11:00N 29°60' W 093°55'0 0.0
2018-May-11 10:30N 29°60' W 093°55'0 0.0
2018-May-11 09:57N 29°60' W 093°55'0 0.0
2018-May-11 09:27N 29°60' W 093°55'0 0.0
2018-May-11 09:00N 29°60' W 093°55'0 0.0
2018-May-11 08:30N 29°60' W 093°55'  
Track history (hours):
 
Tides and Currents Weather Stations Pressure Air Temp Water Temp Dewpoint Dewpoint Depression Visibility Wind Speed Wind Dir Waves Ship Positions

Delfred Romero

Owner: Enterprise Marine Services, LLC, San Antonio, TX. More information available from US FCC via Universal Licensing System and Coast Guard Vessel Documentation Center.

Last reported at 2018-May-21 08:17 UTC. Time now 2018-May-21 09:12 UTC.
Position N 29°27' W 094°42'.

Length 29 m; draft 2.9 m.

MMSI: 367614890.

Date/timePositionNaut miles runAvg speedWind from/ knotsBaromVisibWave heightAir tempDewpointWater temp
2018-May-21 08:17N 29°27' W 094°42'2 5.2
2018-May-21 07:59N 29°26' W 094°43'2 3.7
2018-May-21 07:30N 29°24' W 094°45'2 4.8
2018-May-21 07:00N 29°23' W 094°47'2 4.4
2018-May-21 06:30N 29°24' W 094°49'5 8.6
2018-May-21 05:57N 29°28' W 094°51'4 8.3
2018-May-21 05:30N 29°31' W 094°53'4 7.8
2018-May-21 05:00N 29°34' W 094°56'4 7.8
2018-May-21 04:30N 29°38' W 094°58'4 7.2
2018-May-21 03:58N 29°41' W 094°59'3 6.8
2018-May-21 03:29N 29°44' W 095°02'3 6.7
2018-May-21 03:00N 29°46' W 095°05'1 0.7
2018-May-21 02:13N 29°47' W 095°05'0 0.0
2018-May-21 00:37N 29°47' W 095°05'0 0.1
2018-May-21 00:25N 29°47' W 095°05'3 0.5
2018-May-20 18:19N 29°44' W 095°07'2 5.1
2018-May-20 17:56N 29°44' W 095°09'1 0.0
2018-May-19 21:28N 29°44' W 095°10'0 0.1
2018-May-19 20:55N 29°44' W 095°10'0 0.9
2018-May-19 20:29N 29°44' W 095°09'2 3.0
2018-May-19 19:51N 29°44' W 095°07'0 0.0
2018-May-19 19:29N 29°44' W 095°07'0 0.6
2018-May-19 19:00N 29°44' W 095°07'1 0.1
2018-May-18 21:15N 29°46' W 095°06'2 0.2
2018-May-18 09:42N 29°47' W 095°05'0 0.0
2018-May-18 08:15N 29°47' W 095°05'0 0.0
2018-May-18 07:54N 29°47' W 095°05'0 0.0
2018-May-18 06:27N 29°47' W 095°05'0 0.0
2018-May-17 11:54N 29°47' W 095°05'0 0.0
2018-May-17 05:41N 29°47' W 095°05'0 0.0
2018-May-17 04:15N 29°47' W 095°05'0 0.0
2018-May-17 04:00N 29°47' W 095°05'0 0.0
2018-May-17 03:30N 29°47' W 095°05'0 0.0
2018-May-17 03:00N 29°47' W 095°05'0 0.0
2018-May-17 02:30N 29°47' W 095°05'0 0.0
2018-May-17 02:00N 29°47' W 095°05'0 0.0
2018-May-17 01:28N 29°47' W 095°05'1 0.4
2018-May-16 23:14N 29°46' W 095°05'1 2.3
2018-May-16 22:53N 29°46' W 095°04'2 4.7
2018-May-16 22:25N 29°44' W 095°03'2 5.7
2018-May-16 22:00N 29°42' W 095°01'3 5.6
2018-May-16 21:29N 29°40' W 094°59'3 6.9
2018-May-16 21:00N 29°37' W 094°57'3 6.5
2018-May-16 20:30N 29°34' W 094°55'4 7.3
2018-May-16 20:00N 29°31' W 094°53'4 7.2
2018-May-16 19:29N 29°28' W 094°51'3 7.3
2018-May-16 19:00N 29°25' W 094°49'3 6.4
2018-May-16 18:30N 29°22' W 094°47'3 0.6
2018-May-16 13:23N 29°24' W 094°44'0 0.0
2018-May-16 12:59N 29°24' W 094°44'0 0.0
2018-May-16 12:11N 29°24' W 094°44'0 0.0
2018-May-16 11:47N 29°24' W 094°44'0 0.0
2018-May-16 11:20N 29°24' W 094°44'0 0.0
2018-May-16 10:41N 29°24' W 094°44'0 0.0
2018-May-16 10:14N 29°24' W 094°44'0 0.0
2018-May-16 08:38N 29°24' W 094°44'0 0.0
2018-May-16 08:26N 29°24' W 094°44'0 0.0
2018-May-16 07:50N 29°24' W 094°44'0 0.0
2018-May-16 07:02N 29°24' W 094°44'0 0.0
2018-May-16 06:59N 29°24' W 094°44'0 0.0
2018-May-16 06:29N 29°24' W 094°44'0 0.0
2018-May-16 05:59N 29°24' W 094°44'0 0.0
2018-May-16 05:20N 29°24' W 094°44'0 0.0
2018-May-16 04:59N 29°24' W 094°44'0 0.0
2018-May-16 04:26N 29°24' W 094°44'0 0.0
2018-May-16 03:02N 29°24' W 094°44'0 0.0
2018-May-16 02:53N 29°24' W 094°44'0 0.0
2018-May-16 01:26N 29°24' W 094°44'0 0.0
2018-May-16 00:53N 29°24' W 094°44'0 0.0
2018-May-15 13:17N 29°24' W 094°44'0 0.0
2018-May-15 04:02N 29°24' W 094°44'0 0.0
2018-May-15 01:41N 29°24' W 094°44'0 0.0
2018-May-14 15:38N 29°24' W 094°44'0 0.0
2018-May-13 21:24N 29°24' W 094°45'18 0.4
2018-May-12 04:35N 29°34' W 094°27'1 4.9
2018-May-12 04:27N 29°34' W 094°26'0 0.2
2018-May-12 03:38N 29°34' W 094°26'1 4.0
2018-May-12 03:29N 29°34' W 094°25'2 4.1
2018-May-12 03:00N 29°36' W 094°24'2 4.2
2018-May-12 02:30N 29°37' W 094°22'2 3.9
2018-May-12 01:59N 29°37' W 094°19'3 5.4
2018-May-12 01:31N 29°39' W 094°17'3 5.5
2018-May-12 01:00N 29°40' W 094°14'3 5.4
2018-May-12 00:30N 29°41' W 094°11'3 5.3
2018-May-12 00:00N 29°42' W 094°08'3 5.5
2018-May-11 23:30N 29°44' W 094°06'3 5.5
2018-May-11 23:01N 29°46' W 094°03'3 5.6
2018-May-11 22:31N 29°47' W 094°01'3 5.2
2018-May-11 22:01N 29°49' W 093°59'3 5.4
2018-May-11 21:31N 29°51' W 093°57'4 7.2
2018-May-11 21:00N 29°54' W 093°54'4 7.2
2018-May-11 20:30N 29°57' W 093°52'2 4.8
2018-May-11 20:01N 29°59' W 093°53'1 2.3
2018-May-11 19:31N 29°59' W 093°54'0 0.9
2018-May-11 19:01N 29°60' W 093°55'1 2.3
2018-May-11 18:31N 29°59' W 093°54'2 1.1
2018-May-11 16:31N 29°58' W 093°52'0 0.4
2018-May-11 16:30N 29°58' W 093°52'3 5.5
2018-May-11 15:59N 29°59' W 093°54'0 0.8
2018-May-11 15:30N 29°60' W 093°55'0 0.0
2018-May-11 15:00N 29°60' W 093°55'0 0.0
2018-May-11 14:30N 29°60' W 093°55'0 0.0
2018-May-11 14:00N 29°60' W 093°55'0 0.0
2018-May-11 13:30N 29°60' W 093°55'0 0.0
2018-May-11 13:00N 29°60' W 093°55'0 0.0
2018-May-11 12:21N 29°60' W 093°55'0 0.0
2018-May-11 12:00N 29°60' W 093°55'0 0.0
2018-May-11 11:30N 29°60' W 093°55'0 0.0
2018-May-11 11:00N 29°60' W 093°55'0 0.0
2018-May-11 10:30N 29°60' W 093°55'0 0.0
2018-May-11 09:57N 29°60' W 093°55'0 0.0
2018-May-11 09:27N 29°60' W 093°55'0 0.0
2018-May-11 09:00N 29°60' W 093°55'0 0.0
2018-May-11 08:30N 29°60' W 093°55'  

Dump ship's entire track history